Terminal Aerodrome Forecast
Issued by NWS

Current Version | Previous Version | Graphics & Text | Print | Product List | Glossary On
Versions: 1 2 3 4 5 6 7 8 9 10 11 12 13 14 15 16 17 18
000
FTUS41 KPBZ 221830 AAB
TAFMGW
TAF AMD
KMGW 221830Z 2219/2318 27010G18KT P6SM VCSH BKN080
      TEMPO 2219/2221 4SM -SHRA BKN040
     FM222200 28008G16KT P6SM SCT070
     FM230100 34003KT P6SM SKC=

USA.gov is the U.S. government's official web portal to all federal, state and local government web resources and services.